Time;durP1;ratioP1;P1;durP2;ratioP2;P2;SDS_P1;SDS_P2;PMS_P1;PMS_P2;Temp;Humidity;BMP_temperature;BMP_pressure;BME280_temperature;BME280_humidity;BME280_pressure;Samples;Min_cycle;Max_cycle;Signal;HPM_P1;HPM_P2
2021/06/24 00:01:30;;;;;;;0.40;0.40;;;;;;;18.62;75.14;98664.84;5116059;28;20160;-59
2021/06/24 00:03:56;;;;;;;0.17;0.17;;;;;;;19.28;74.42;98658.94;5116245;28;20031;-59
2021/06/24 00:06:21;;;;;;;0.20;0.20;;;;;;;20.00;73.79;98661.66;5116236;28;20057;-59
2021/06/24 00:08:47;;;;;;;0.17;0.17;;;;;;;20.70;73.08;98659.19;5115888;28;20058;-59
2021/06/24 00:11:13;;;;;;;0.30;0.30;;;;;;;21.26;72.58;98657.31;5115552;28;20032;-59
2021/06/24 00:13:40;;;;;;;0.47;0.47;;;;;;;21.81;71.99;98659.31;5097220;28;20027;-58
2021/06/24 00:16:06;;;;;;;0.10;0.10;;;;;;;22.40;71.49;98660.19;5116004;28;20031;-58
2021/06/24 00:18:32;;;;;;;0.10;0.10;;;;;;;23.04;71.25;98661.09;5097107;28;20031;-59
2021/06/24 00:20:58;;;;;;;0.10;0.10;;;;;;;23.68;70.39;98660.72;5115954;28;20031;-59
2021/06/24 00:23:24;;;;;;;0.20;0.20;;;;;;;24.30;70.01;98667.28;5115841;28;20233;-58
2021/06/24 00:25:50;;;;;;;0.20;0.20;;;;;;;24.93;69.21;98664.09;5114794;28;20038;-60
2021/06/24 00:28:16;;;;;;;0.30;0.30;;;;;;;25.50;68.65;98658.13;5115681;28;20031;-59
2021/06/24 00:30:47;;;;;;;0.10;0.10;;;;;;;26.05;67.88;98655.53;5115648;28;20060;-58
2021/06/24 00:33:14;;;;;;;0.20;0.20;;;;;;;26.52;67.85;98651.69;5115448;28;20061;-59
2021/06/24 00:35:40;;;;;;;0.17;0.17;;;;;;;26.94;67.28;98643.16;5115049;28;20032;-59
2021/06/24 00:38:07;;;;;;;0.20;0.20;;;;;;;27.48;66.52;98642.22;5096795;28;20081;-58
2021/06/24 00:40:36;;;;;;;0.68;0.68;;;;;;;28.17;65.95;98639.56;5115237;28;20408;-58
2021/06/24 00:43:04;;;;;;;0.20;0.20;;;;;;;28.80;64.81;98650.31;5114896;28;20028;-58
2021/06/24 00:45:30;;;;;;;0.00;0.00;;;;;;;29.39;63.98;98644.19;5115441;28;20465;-59
2021/06/24 00:47:56;;;;;;;0.03;0.03;;;;;;;29.93;63.16;98640.69;5115412;28;20020;-59
2021/06/24 00:50:22;;;;;;;0.10;0.10;;;;;;;30.33;61.85;98652.88;5115287;28;20426;-58
2021/06/24 00:52:48;;;;;;;0.15;0.15;;;;;;;30.68;61.18;98650.03;5115191;28;20032;-62
2021/06/24 00:55:14;;;;;;;0.30;0.30;;;;;;;31.17;61.08;98648.56;5114416;28;20503;-58
2021/06/24 00:57:40;;;;;;;0.20;0.20;;;;;;;31.55;60.35;98651.63;5096042;28;20528;-57
2021/06/24 01:00:09;;;;;;;0.20;0.20;;;;;;;31.79;59.51;98647.59;5114977;28;20393;-58
2021/06/24 01:02:38;;;;;;;0.28;0.28;;;;;;;31.97;58.52;98648.69;5114759;28;20118;-59
2021/06/24 01:05:04;;;;;;;0.10;0.10;;;;;;;32.10;56.98;98654.16;5114732;28;20039;-59
2021/06/24 01:07:30;;;;;;;0.10;0.10;;;;;;;32.25;56.94;98660.88;5114831;28;20195;-60
2021/06/24 01:09:56;;;;;;;0.00;0.00;;;;;;;32.54;56.42;98667.75;5115004;28;20380;-58
2021/06/24 01:12:22;;;;;;;0.13;0.13;;;;;;;32.92;55.90;98664.97;5114802;28;20110;-59
2021/06/24 01:14:50;;;;;;;1.23;0.20;;;;;;;33.38;55.67;98664.69;5114700;28;20119;-60
2021/06/24 01:17:16;;;;;;;0.10;0.10;;;;;;;33.68;55.31;98678.75;5114146;28;20032;-58
2021/06/24 01:19:42;;;;;;;0.25;0.25;;;;;;;33.99;54.78;98670.06;5114588;28;20054;-60
2021/06/24 01:22:09;;;;;;;0.52;0.40;;;;;;;34.38;54.04;98666.69;5114650;28;20067;-59
2021/06/24 01:24:35;;;;;;;0.10;0.10;;;;;;;34.71;53.80;98673.34;5114148;28;20031;-60
2021/06/24 01:27:00;;;;;;;0.05;0.05;;;;;;;35.00;53.56;98667.75;5114571;28;20031;-59
2021/06/24 01:29:26;;;;;;;0.10;0.10;;;;;;;35.39;53.17;98673.56;5113812;28;20020;-60
2021/06/24 01:31:52;;;;;;;0.35;0.35;;;;;;;35.76;52.51;98668.69;5114482;28;20115;-59
2021/06/24 01:34:18;;;;;;;0.10;0.10;;;;;;;36.06;51.88;98671.13;5114291;28;20069;-59
2021/06/24 01:36:44;;;;;;;0.03;0.03;;;;;;;36.27;51.73;98669.47;5113607;28;20160;-58
2021/06/24 01:39:15;;;;;;;0.10;0.10;;;;;;;36.56;51.29;98664.50;5114342;28;20032;-59
2021/06/24 01:41:41;;;;;;;0.05;0.05;;;;;;;36.90;50.87;98669.69;5113710;28;20044;-59
2021/06/24 01:44:07;;;;;;;1.98;0.63;;;;;;;37.15;50.47;98668.72;5113594;28;20564;-59
2021/06/24 01:46:33;;;;;;;0.20;0.20;;;;;;;37.45;49.98;98661.59;5113824;28;20100;-59
2021/06/24 01:48:59;;;;;;;0.00;0.00;;;;;;;37.70;49.15;98667.91;5113474;28;20026;-60
2021/06/24 01:51:24;;;;;;;0.10;0.10;;;;;;;38.02;48.79;98663.16;5114041;28;20034;-59
2021/06/24 01:53:51;;;;;;;0.10;0.10;;;;;;;38.34;47.90;98662.00;5114052;28;20043;-59
2021/06/24 01:56:16;;;;;;;0.82;0.25;;;;;;;38.66;47.43;98655.13;5113460;28;20035;-59
2021/06/24 01:58:42;;;;;;;0.10;0.10;;;;;;;38.98;46.64;98654.69;5113579;28;20553;-58
2021/06/24 02:01:08;;;;;;;0.20;0.20;;;;;;;39.33;46.28;98657.50;5113899;28;20049;-58
2021/06/24 02:03:37;;;;;;;0.10;0.10;;;;;;;39.83;45.31;98650.09;5078352;28;20024;-59
2021/06/24 02:06:05;;;;;;;0.28;0.28;;;;;;;40.33;44.76;98643.44;5095174;28;20027;-59
2021/06/24 02:08:35;;;;;;;0.10;0.10;;;;;;;40.50;44.81;98643.56;5094881;28;20409;-59
2021/06/24 02:11:01;;;;;;;0.10;0.10;;;;;;;40.66;44.76;98654.31;5113073;28;20032;-59
2021/06/24 02:13:27;;;;;;;0.10;0.10;;;;;;;40.83;44.69;98652.28;5094759;28;20050;-61
2021/06/24 02:15:53;;;;;;;0.10;0.10;;;;;;;41.37;43.02;98642.47;5113073;28;20028;-60
2021/06/24 02:18:19;;;;;;;0.10;0.10;;;;;;;41.55;43.09;98645.75;5077825;28;20386;-59
2021/06/24 02:20:45;;;;;;;0.20;0.20;;;;;;;41.68;43.04;98646.63;5113331;28;20038;-61
2021/06/24 02:23:11;;;;;;;0.10;0.10;;;;;;;41.73;42.69;98636.63;5094723;28;20032;-61
2021/06/24 02:25:37;;;;;;;0.15;0.15;;;;;;;41.69;42.64;98638.78;5094510;28;20466;-62
2021/06/24 02:28:04;;;;;;;0.38;0.20;;;;;;;41.67;42.38;98627.72;5113014;28;20527;-61
2021/06/24 02:30:30;;;;;;;0.10;0.10;;;;;;;41.69;42.30;98635.91;5113086;28;20028;-60
2021/06/24 02:32:56;;;;;;;0.10;0.10;;;;;;;42.04;41.32;98633.38;5113605;28;20035;-60
2021/06/24 02:35:23;;;;;;;0.40;0.30;;;;;;;42.29;41.04;98641.34;5113169;28;20137;-60
2021/06/24 02:37:50;;;;;;;1.08;0.45;;;;;;;42.49;40.17;98638.31;5113351;28;20080;-60
2021/06/24 02:40:17;;;;;;;0.10;0.10;;;;;;;42.71;39.47;98629.00;5112739;28;20039;-62
2021/06/24 02:42:44;;;;;;;0.10;0.10;;;;;;;42.95;38.69;98628.69;5113426;28;20488;-60
2021/06/24 02:45:11;;;;;;;0.30;0.30;;;;;;;42.68;39.21;98627.84;5113101;28;20563;-60
2021/06/24 02:47:37;;;;;;;0.10;0.10;;;;;;;42.22;39.43;98626.31;5113532;28;20032;-60
2021/06/24 02:50:05;;;;;;;0.43;0.20;;;;;;;42.17;39.10;98619.84;5116980;28;20442;-60
2021/06/24 02:52:31;;;;;;;0.10;0.10;;;;;;;42.14;39.16;98625.66;5117225;28;20400;-60
2021/06/24 02:54:57;;;;;;;0.20;0.20;;;;;;;42.24;38.29;98615.13;5116751;28;20028;-60
2021/06/24 02:57:22;;;;;;;0.10;0.10;;;;;;;42.00;38.58;98624.00;5117262;28;20049;-61
2021/06/24 02:59:48;;;;;;;0.10;0.10;;;;;;;41.60;39.02;98619.25;5117448;28;20032;-60
2021/06/24 03:02:14;;;;;;;0.10;0.10;;;;;;;41.44;38.32;98617.19;5116932;28;20023;-60
2021/06/24 03:04:41;;;;;;;0.20;0.20;;;;;;;41.52;37.86;98617.00;5117016;28;20032;-60
2021/06/24 03:07:07;;;;;;;0.38;0.28;;;;;;;41.87;37.09;98609.50;5099542;28;20040;-60
2021/06/24 03:09:37;;;;;;;0.13;0.13;;;;;;;42.10;36.80;98616.31;5094410;28;20127;-60
2021/06/24 03:12:03;;;;;;;0.10;0.10;;;;;;;42.49;35.75;98615.22;5095148;28;20078;-59
2021/06/24 03:14:29;;;;;;;0.10;0.10;;;;;;;42.19;35.83;98608.63;5096146;28;20024;-59
2021/06/24 03:16:54;;;;;;;0.20;0.20;;;;;;;41.21;36.88;98611.56;5096286;28;20035;-60
2021/06/24 03:19:21;;;;;;;0.22;0.20;;;;;;;40.51;38.08;98602.81;5095745;28;20122;-60
2021/06/24 03:21:46;;;;;;;1.35;0.75;;;;;;;39.90;38.60;98601.94;5096168;28;20405;-62
2021/06/24 03:24:12;;;;;;;0.00;0.00;;;;;;;39.19;39.13;98598.22;5096587;28;20031;-59
2021/06/24 03:26:38;;;;;;;0.15;0.15;;;;;;;38.86;39.37;98592.13;5096667;28;20496;-61
2021/06/24 03:29:05;;;;;;;0.38;0.38;;;;;;;38.61;39.29;98589.59;5095931;28;20024;-61
2021/06/24 03:31:31;;;;;;;0.20;0.20;;;;;;;38.33;39.53;98598.13;5096449;28;20028;-60
2021/06/24 03:33:57;;;;;;;0.30;0.20;;;;;;;38.18;39.01;98602.41;5096385;28;20035;-60
2021/06/24 03:36:22;;;;;;;1.27;0.40;;;;;;;38.06;38.94;98588.59;5077789;28;20533;-59
2021/06/24 03:38:49;;;;;;;0.17;0.17;;;;;;;37.74;39.01;98579.13;5096373;28;20499;-60
2021/06/24 03:41:23;;;;;;;0.10;0.10;;;;;;;37.78;38.66;98579.06;5095581;28;20121;-59
2021/06/24 03:43:49;;;;;;;0.10;0.10;;;;;;;37.92;38.12;98590.38;5095195;28;20039;-61
2021/06/24 03:46:14;;;;;;;0.08;0.08;;;;;;;38.08;37.36;98591.88;5077572;28;20028;-59
2021/06/24 03:48:40;;;;;;;0.20;0.20;;;;;;;38.28;36.83;98584.28;5077380;28;20167;-58
2021/06/24 03:51:07;;;;;;;0.10;0.10;;;;;;;39.00;35.46;98589.03;5095385;28;20034;-64
2021/06/24 03:53:34;;;;;;;0.10;0.10;;;;;;;40.08;33.63;98580.69;5077287;28;20542;-60
2021/06/24 03:56:00;;;;;;;0.10;0.10;;;;;;;40.69;32.98;98579.41;5095994;28;20024;-62
2021/06/24 03:58:25;;;;;;;0.20;0.20;;;;;;;40.92;32.50;98581.38;5077623;28;20366;-60
2021/06/24 04:00:51;;;;;;;0.52;0.50;;;;;;;40.94;32.65;98578.06;5094819;28;20029;-61
2021/06/24 04:03:17;;;;;;;0.10;0.10;;;;;;;41.19;32.26;98577.44;5077090;28;20082;-61
2021/06/24 04:05:44;;;;;;;0.40;0.30;;;;;;;41.22;32.24;98581.50;5095673;28;20062;-63
2021/06/24 04:08:10;;;;;;;0.50;0.50;;;;;;;41.58;31.59;98580.59;5094838;28;20051;-61
2021/06/24 04:10:37;;;;;;;1.83;0.25;;;;;;;41.03;32.26;98569.59;5076715;28;20039;-63
2021/06/24 04:13:04;;;;;;;0.85;0.65;;;;;;;39.97;33.76;98557.84;5095654;28;20337;-60
2021/06/24 04:15:31;;;;;;;1.00;0.50;;;;;;;40.21;33.25;98569.31;5094950;28;20036;-60
2021/06/24 04:17:59;;;;;;;0.30;0.30;;;;;;;41.16;31.59;98575.47;5095144;28;20052;-61
2021/06/24 04:20:25;;;;;;;0.52;0.52;;;;;;;41.71;30.67;98577.81;5095442;28;20040;-60
2021/06/24 04:22:51;;;;;;;0.30;0.30;;;;;;;42.51;29.53;98563.59;5094881;28;20032;-60
2021/06/24 04:25:18;;;;;;;0.20;0.20;;;;;;;43.49;28.51;98558.44;5094535;28;20036;-61
2021/06/24 04:27:44;;;;;;;0.60;0.60;;;;;;;44.27;27.85;98559.81;5076557;28;20515;-61
2021/06/24 04:30:11;;;;;;;0.60;0.60;;;;;;;44.85;27.17;98562.56;5095001;28;20039;-61
2021/06/24 04:32:38;;;;;;;1.08;0.40;;;;;;;45.19;26.99;98558.72;5094917;28;20030;-63
2021/06/24 04:35:05;;;;;;;0.30;0.30;;;;;;;45.60;26.44;98561.56;5095052;28;20035;-61
2021/06/24 04:37:31;;;;;;;0.70;0.40;;;;;;;45.68;26.45;98553.38;5091456;28;20043;-61
2021/06/24 04:39:57;;;;;;;0.50;0.50;;;;;;;45.79;26.53;98540.00;5093924;28;20058;-53
2021/06/24 04:42:23;;;;;;;0.35;0.30;;;;;;;45.91;26.40;98544.06;5094742;28;20493;-54
2021/06/24 04:44:49;;;;;;;0.50;0.50;;;;;;;45.30;27.15;98537.97;5075579;28;20042;-58
2021/06/24 04:47:15;;;;;;;0.20;0.20;;;;;;;43.90;28.82;98542.16;5094668;28;20552;-61
2021/06/24 04:49:42;;;;;;;1.75;0.22;;;;;;;42.12;30.71;98538.78;5092603;28;20051;-61
2021/06/24 04:52:08;;;;;;;0.25;0.25;;;;;;;39.73;33.68;98531.25;5092782;28;20026;-62
2021/06/24 04:54:34;;;;;;;0.50;0.50;;;;;;;37.39;36.66;98525.84;5093678;28;20032;-58
2021/06/24 04:57:00;;;;;;;0.15;0.15;;;;;;;35.39;39.42;98527.19;5091710;28;20034;-61
2021/06/24 04:59:27;;;;;;;1.35;0.60;;;;;;;34.08;40.91;98525.25;5091934;28;20490;-62
2021/06/24 05:01:53;;;;;;;0.30;0.30;;;;;;;33.29;40.89;98525.59;5074275;28;20024;-60
2021/06/24 05:04:18;;;;;;;0.10;0.10;;;;;;;32.82;40.83;98541.41;5092257;28;20035;-61
2021/06/24 05:06:49;;;;;;;0.65;0.52;;;;;;;32.23;40.98;98521.25;5075470;28;20028;-62
2021/06/24 05:09:15;;;;;;;0.25;0.25;;;;;;;31.75;40.86;98525.47;5094104;28;20043;-62
2021/06/24 05:11:41;;;;;;;0.10;0.10;;;;;;;31.46;40.52;98529.91;5076375;28;20062;-60
2021/06/24 05:14:08;;;;;;;0.45;0.20;;;;;;;31.20;40.08;98525.03;5094176;28;20416;-60
2021/06/24 05:16:35;;;;;;;0.10;0.10;;;;;;;31.04;39.69;98509.00;5092279;28;20047;-60
2021/06/24 05:19:02;;;;;;;0.20;0.20;;;;;;;31.05;39.02;98512.63;5092238;28;20032;-60
2021/06/24 05:21:29;;;;;;;0.05;0.05;;;;;;;30.51;39.32;98514.50;5092008;28;20211;-60
2021/06/24 05:23:55;;;;;;;0.10;0.10;;;;;;;30.29;39.14;98519.72;5091627;28;20027;-61
2021/06/24 05:26:24;;;;;;;0.20;0.20;;;;;;;31.12;37.56;98511.94;5091815;28;20070;-60
2021/06/24 05:29:06;;;;;;;0.20;0.20;;;;;;;32.25;35.19;98505.44;5091678;28;20040;-61
2021/06/24 05:31:39;;;;;;;0.00;0.00;;;;;;;34.50;31.89;98503.84;5055426;28;20444;-61
2021/06/24 05:34:05;;;;;;;0.90;0.22;;;;;;;35.41;30.47;98504.72;5072982;28;20406;-58
2021/06/24 05:36:33;;;;;;;0.10;0.10;;;;;;;35.37;30.64;98498.25;5075533;28;20040;-61
2021/06/24 05:39:00;;;;;;;0.08;0.08;;;;;;;33.93;33.09;98495.09;5091860;28;20027;-62
2021/06/24 05:41:32;;;;;;;0.13;0.13;;;;;;;32.40;34.94;98497.09;5091668;28;20028;-59
2021/06/24 05:43:59;;;;;;;0.05;0.05;;;;;;;31.31;36.48;98497.66;5091556;28;20032;-60
2021/06/24 05:46:28;;;;;;;0.32;0.32;;;;;;;30.35;37.63;98492.72;5089608;28;20024;-60
2021/06/24 05:48:57;;;;;;;0.55;0.50;;;;;;;29.54;38.46;98488.59;5083139;28;20028;-60
2021/06/24 05:51:24;;;;;;;0.08;0.08;;;;;;;28.89;39.16;98497.56;5103668;28;20065;-60
2021/06/24 05:53:53;;;;;;;0.17;0.17;;;;;;;28.32;39.69;98488.38;5074296;28;20051;-60
2021/06/24 05:56:20;;;;;;;0.00;0.00;;;;;;;27.93;39.79;98500.16;5091453;28;20110;-61
2021/06/24 05:58:46;;;;;;;0.52;0.52;;;;;;;27.65;39.89;98496.47;5069846;28;20032;-60
2021/06/24 06:01:14;;;;;;;0.00;0.00;;;;;;;27.28;39.73;98491.69;5077364;28;20512;-62
2021/06/24 06:03:40;;;;;;;0.15;0.15;;;;;;;26.93;40.14;98495.03;5085673;28;20039;-63
2021/06/24 06:06:06;;;;;;;0.10;0.10;;;;;;;26.83;40.16;98499.13;5090799;28;20461;-62
2021/06/24 06:08:32;;;;;;;0.20;0.20;;;;;;;26.74;39.96;98492.78;5098538;28;20478;-62
2021/06/24 06:10:58;;;;;;;0.10;0.10;;;;;;;26.74;39.44;98495.59;5104277;28;21476;-61
2021/06/24 06:13:23;;;;;;;0.20;0.20;;;;;;;26.77;39.18;98496.88;5103684;28;20032;-61
2021/06/24 06:15:50;;;;;;;0.25;0.25;;;;;;;26.81;38.78;98490.22;5104428;28;20428;-61
2021/06/24 06:18:19;;;;;;;2.03;0.43;;;;;;;26.71;38.51;98487.88;5094055;28;20027;-62
2021/06/24 06:20:47;;;;;;;0.85;0.20;;;;;;;26.65;38.69;98492.88;5086756;28;20074;-62
2021/06/24 06:23:17;;;;;;;0.20;0.20;;;;;;;26.68;38.25;98488.56;5105266;28;20039;-63
2021/06/24 06:25:44;;;;;;;0.10;0.10;;;;;;;26.61;37.97;98494.72;5089592;28;20090;-60
2021/06/24 06:28:11;;;;;;;0.10;0.10;;;;;;;26.56;38.33;98489.31;5074077;28;20032;-61
2021/06/24 06:30:37;;;;;;;0.00;0.00;;;;;;;26.72;37.64;98478.22;5097243;28;20040;-60
2021/06/24 06:33:04;;;;;;;0.10;0.10;;;;;;;26.84;37.48;98466.97;5097067;28;20375;-60
2021/06/24 06:35:31;;;;;;;0.40;0.40;;;;;;;26.95;37.32;98477.78;5094170;28;20036;-62
2021/06/24 06:37:57;;;;;;;0.20;0.20;;;;;;;26.87;37.02;98479.50;5100038;28;20122;-64
2021/06/24 06:40:23;;;;;;;0.17;0.17;;;;;;;26.75;37.19;98484.00;5084258;28;20153;-61
2021/06/24 06:42:49;;;;;;;0.30;0.30;;;;;;;26.64;37.47;98474.31;5098515;28;20028;-61
2021/06/24 06:45:18;;;;;;;0.65;0.25;;;;;;;26.56;37.52;98470.44;5074197;28;20057;-62
2021/06/24 06:47:45;;;;;;;0.30;0.30;;;;;;;26.49;37.67;98484.28;5081740;28;20129;-60
2021/06/24 06:50:15;;;;;;;0.52;0.52;;;;;;;26.32;37.61;98481.66;5098878;28;20033;-60
2021/06/24 06:52:42;;;;;;;0.55;0.55;;;;;;;26.26;37.94;98480.22;5109113;28;20044;-60
2021/06/24 06:55:11;;;;;;;0.00;0.00;;;;;;;26.35;37.53;98475.31;5101039;28;20025;-60
2021/06/24 06:57:38;;;;;;;0.43;0.43;;;;;;;26.42;37.41;98469.13;5098625;28;20041;-60
2021/06/24 07:00:07;;;;;;;0.20;0.20;;;;;;;26.58;36.80;98464.47;5076708;28;20077;-62
2021/06/24 07:02:34;;;;;;;1.10;0.55;;;;;;;26.69;36.65;98470.47;5105769;28;20087;-63
2021/06/24 07:05:00;;;;;;;0.38;0.35;;;;;;;26.74;36.57;98473.88;5109492;28;20118;-62
2021/06/24 07:07:25;;;;;;;0.73;0.57;;;;;;;26.97;35.91;98481.06;5073614;28;20143;-60
2021/06/24 07:09:53;;;;;;;0.10;0.10;;;;;;;27.10;36.15;98480.72;5079139;28;20424;-60
2021/06/24 07:12:19;;;;;;;0.50;0.50;;;;;;;27.26;35.63;98480.78;5090114;28;20119;-61
2021/06/24 07:14:44;;;;;;;0.08;0.08;;;;;;;27.38;35.58;98485.59;5091504;28;20111;-61
2021/06/24 07:17:10;;;;;;;0.38;0.38;;;;;;;27.26;35.78;98477.97;5091743;28;20040;-60
2021/06/24 07:19:36;;;;;;;0.95;0.22;;;;;;;27.21;35.90;98474.59;5090443;28;20024;-60
2021/06/24 07:22:03;;;;;;;0.57;0.57;;;;;;;27.22;35.97;98479.03;5090770;28;20028;-60
2021/06/24 07:24:28;;;;;;;0.10;0.10;;;;;;;27.34;35.55;98464.97;5090341;28;20546;-60
2021/06/24 07:26:54;;;;;;;0.10;0.10;;;;;;;27.50;35.63;98461.41;5090543;28;20114;-62
2021/06/24 07:29:20;;;;;;;0.10;0.10;;;;;;;27.62;35.51;98455.75;5090326;28;20036;-61
2021/06/24 07:31:46;;;;;;;1.95;0.85;;;;;;;27.69;35.19;98449.47;5072094;28;20091;-61
2021/06/24 07:34:12;;;;;;;0.70;0.70;;;;;;;27.41;35.93;98450.25;5090403;28;20508;-60
2021/06/24 07:36:39;;;;;;;0.22;0.22;;;;;;;27.29;36.06;98451.06;5094934;28;20032;-60
2021/06/24 07:39:05;;;;;;;0.10;0.10;;;;;;;27.09;36.40;98445.25;5095911;28;20059;-61
2021/06/24 07:41:32;;;;;;;0.20;0.20;;;;;;;27.04;36.12;98447.47;5095450;28;20055;-61
2021/06/24 07:43:57;;;;;;;0.30;0.30;;;;;;;26.99;36.27;98454.19;5076672;28;20401;-60
2021/06/24 07:46:27;;;;;;;1.50;0.70;;;;;;;27.02;36.24;98445.00;5092057;28;20038;-63
2021/06/24 07:48:53;;;;;;;0.20;0.20;;;;;;;26.98;36.53;98438.44;5073695;28;20508;-61
2021/06/24 07:51:22;;;;;;;0.52;0.30;;;;;;;26.85;36.56;98443.25;5093134;28;20039;-61
2021/06/24 07:53:51;;;;;;;0.20;0.20;;;;;;;26.76;36.84;98436.91;5095639;28;20508;-62
2021/06/24 07:56:18;;;;;;;0.52;0.52;;;;;;;26.77;36.81;98427.31;5092350;28;20032;-62
2021/06/24 07:58:44;;;;;;;0.20;0.20;;;;;;;26.79;36.79;98424.13;5094747;28;20062;-63
2021/06/24 08:01:10;;;;;;;0.25;0.25;;;;;;;26.71;36.52;98428.72;5095575;28;20102;-63
2021/06/24 08:03:40;;;;;;;0.13;0.13;;;;;;;26.71;36.75;98423.09;5095378;28;20036;-64
2021/06/24 08:06:09;;;;;;;0.32;0.20;;;;;;;26.78;36.40;98422.50;5095690;28;20058;-63
2021/06/24 08:08:35;;;;;;;0.40;0.40;;;;;;;26.97;36.19;98425.50;5076818;28;20096;-63
2021/06/24 08:11:01;;;;;;;0.50;0.50;;;;;;;27.04;36.01;98419.28;5077191;28;20405;-62
2021/06/24 08:13:28;;;;;;;0.20;0.20;;;;;;;27.11;36.21;98422.34;5095770;28;20031;-62
2021/06/24 08:15:55;;;;;;;0.10;0.10;;;;;;;27.05;35.94;98429.41;5095747;28;20024;-63
2021/06/24 08:18:22;;;;;;;0.10;0.10;;;;;;;27.08;36.26;98432.31;5095370;28;20042;-63
2021/06/24 08:20:49;;;;;;;0.10;0.10;;;;;;;27.15;35.83;98409.19;5095403;28;20118;-62
2021/06/24 08:23:17;;;;;;;0.20;0.20;;;;;;;27.25;35.96;98405.88;5094831;28;20032;-62
2021/06/24 08:25:44;;;;;;;0.45;0.30;;;;;;;27.32;35.79;98407.28;5094590;28;20139;-60
2021/06/24 08:28:11;;;;;;;0.20;0.20;;;;;;;27.35;35.65;98415.03;5093834;28;20110;-60
2021/06/24 08:30:41;;;;;;;0.10;0.10;;;;;;;27.36;35.81;98411.06;5090590;28;20036;-60
2021/06/24 08:33:07;;;;;;;0.10;0.10;;;;;;;27.22;36.13;98415.06;5094584;28;20094;-61
2021/06/24 08:35:33;;;;;;;0.22;0.17;;;;;;;26.99;36.51;98411.09;5094361;28;20043;-60
2021/06/24 08:37:59;;;;;;;0.20;0.20;;;;;;;26.82;36.75;98410.16;5094881;28;20028;-61
2021/06/24 08:40:26;;;;;;;0.30;0.30;;;;;;;26.73;36.77;98412.28;5076708;28;20024;-62
2021/06/24 08:42:52;;;;;;;0.20;0.20;;;;;;;26.56;37.19;98419.75;5076333;28;20059;-61
2021/06/24 08:45:18;;;;;;;0.17;0.17;;;;;;;26.43;37.13;98412.47;5094752;28;20482;-62
2021/06/24 08:47:47;;;;;;;0.20;0.20;;;;;;;26.25;37.41;98411.03;5094441;28;20028;-60
2021/06/24 08:50:14;;;;;;;4.28;0.45;;;;;;;26.07;37.68;98408.41;5094188;28;20028;-61
2021/06/24 08:52:44;;;;;;;0.30;0.30;;;;;;;25.86;37.91;98403.66;5094462;28;20040;-61
2021/06/24 08:55:10;;;;;;;0.40;0.40;;;;;;;25.64;38.17;98393.63;5095004;28;20438;-60
2021/06/24 08:57:37;;;;;;;0.32;0.32;;;;;;;25.56;38.07;98407.75;5093464;28;20058;-60
2021/06/24 09:00:07;;;;;;;2.45;0.45;;;;;;;25.70;37.81;98399.84;5093880;28;20032;-60
2021/06/24 09:02:45;;;;;;;0.70;0.63;;;;;;;25.83;37.24;98401.53;5094773;28;20034;-60
2021/06/24 09:05:12;;;;;;;0.25;0.25;;;;;;;25.77;37.42;98399.28;5091990;28;20070;-61
2021/06/24 09:07:48;;;;;;;0.10;0.10;;;;;;;25.68;37.24;98396.56;5092249;28;20048;-60
2021/06/24 09:10:14;;;;;;;0.13;0.10;;;;;;;25.57;37.50;98407.41;5094505;28;20054;-62
2021/06/24 09:12:55;;;;;;;0.15;0.15;;;;;;;25.50;37.53;98415.56;5094434;28;20038;-60
2021/06/24 09:15:23;;;;;;;0.10;0.10;;;;;;;25.25;38.16;98425.81;5094211;28;20495;-60
2021/06/24 09:17:49;;;;;;;0.00;0.00;;;;;;;24.96;38.46;98424.72;5093756;28;20111;-60
2021/06/24 09:20:18;;;;;;;0.10;0.10;;;;;;;24.67;38.96;98415.13;5093940;28;20461;-61
2021/06/24 09:23:07;;;;;;;0.10;0.10;;;;;;;24.49;39.16;98411.56;5094222;28;20047;-61
2021/06/24 09:25:33;;;;;;;0.10;0.10;;;;;;;24.44;38.68;98406.13;5093942;28;20032;-61
2021/06/24 09:27:59;;;;;;;0.10;0.10;;;;;;;24.47;38.99;98413.88;5075460;28;20073;-60
2021/06/24 09:30:30;;;;;;;0.00;0.00;;;;;;;24.48;38.48;98413.56;5093801;28;20036;-61
2021/06/24 09:32:57;;;;;;;0.98;0.75;;;;;;;24.44;38.60;98411.72;5093748;28;20077;-61
2021/06/24 09:35:23;;;;;;;0.10;0.10;;;;;;;24.40;38.77;98407.97;5093438;28;20035;-60
2021/06/24 09:37:59;;;;;;;0.10;0.10;;;;;;;24.29;38.66;98405.53;5093697;28;20032;-69
2021/06/24 09:40:47;;;;;;;0.20;0.15;;;;;;;24.25;38.58;98409.34;5093149;28;20059;-70
2021/06/24 09:43:31;;;;;;;0.10;0.10;;;;;;;24.20;39.10;98401.09;5094052;28;20024;-67
2021/06/24 09:46:18;;;;;;;0.08;0.08;;;;;;;24.18;38.79;98393.03;5093574;28;20043;-61
2021/06/24 09:48:51;;;;;;;0.30;0.30;;;;;;;24.17;38.65;98393.38;5093240;28;20074;-61
2021/06/24 09:51:30;;;;;;;0.17;0.13;;;;;;;24.08;39.17;98391.41;5093537;28;20094;-59
2021/06/24 09:54:00;;;;;;;0.10;0.10;;;;;;;24.00;39.30;98392.28;5093468;28;20032;-62
2021/06/24 09:56:44;;;;;;;0.10;0.10;;;;;;;23.94;39.27;98391.63;5093105;28;20028;-61
2021/06/24 09:59:11;;;;;;;0.20;0.20;;;;;;;23.95;38.91;98389.63;5074385;28;20050;-60
2021/06/24 10:01:45;;;;;;;0.10;0.10;;;;;;;24.00;39.00;98388.63;5093569;28;20035;-61
2021/06/24 10:04:24;;;;;;;0.30;0.30;;;;;;;24.06;38.56;98385.31;5093086;28;20046;-59
2021/06/24 10:06:52;;;;;;;0.10;0.10;;;;;;;24.19;38.61;98379.81;5093231;28;20082;-61
2021/06/24 10:09:18;;;;;;;0.10;0.10;;;;;;;24.38;38.02;98371.84;5092724;28;20105;-60
2021/06/24 10:11:45;;;;;;;0.20;0.20;;;;;;;24.49;37.83;98367.47;5093161;28;20028;-60
2021/06/24 10:14:11;;;;;;;0.10;0.10;;;;;;;24.70;37.61;98369.53;5074879;28;20036;-61
2021/06/24 10:16:37;;;;;;;0.65;0.65;;;;;;;25.03;37.17;98363.22;5093005;28;20055;-60
2021/06/24 10:19:04;;;;;;;0.60;0.20;;;;;;;25.27;37.08;98356.88;5074613;28;20040;-62
2021/06/24 10:21:33;;;;;;;0.05;0.05;;;;;;;25.40;36.86;98348.53;5093132;28;20160;-60
2021/06/24 10:24:12;;;;;;;0.13;0.10;;;;;;;25.60;36.72;98350.47;5092493;28;20127;-61
2021/06/24 10:26:42;;;;;;;0.10;0.10;;;;;;;25.82;36.46;98334.38;5092692;28;20070;-61
2021/06/24 10:29:14;;;;;;;0.10;0.10;;;;;;;26.10;36.23;98331.75;5092560;28;20085;-61
2021/06/24 10:31:49;;;;;;;0.28;0.28;;;;;;;26.30;35.82;98332.84;5093208;28;20128;-59
2021/06/24 10:34:18;;;;;;;0.52;0.43;;;;;;;26.42;35.98;98329.19;5074405;28;20126;-60
2021/06/24 10:37:13;;;;;;;0.15;0.15;;;;;;;26.57;35.46;98331.31;5074883;28;20035;-62
2021/06/24 10:39:40;;;;;;;;;;;;;;;26.71;35.43;98322.53;5093269;28;20035;-63
2021/06/24 10:42:11;;;;;;;0.20;0.20;;;;;;;26.86;35.38;98308.88;5092673;28;20382;-62
2021/06/24 10:44:46;;;;;;;0.22;0.20;;;;;;;27.02;35.27;98295.69;5092919;28;20040;-61
2021/06/24 10:47:12;;;;;;;0.10;0.10;;;;;;;27.28;34.96;98314.97;5092757;28;20032;-61
2021/06/24 10:49:38;;;;;;;0.60;0.22;;;;;;;27.45;34.76;98307.41;5092617;28;20115;-59
2021/06/24 10:52:29;;;;;;;0.00;0.00;;;;;;;27.28;35.15;98288.75;5092874;28;20085;-61
2021/06/24 10:54:58;;;;;;;0.30;0.30;;;;;;;27.12;35.19;98283.09;5092988;28;20032;-60
2021/06/24 10:57:50;;;;;;;0.28;0.20;;;;;;;27.02;35.79;98289.25;5092583;28;20370;-60
2021/06/24 11:00:45;;;;;;;0.22;0.22;;;;;;;27.03;35.51;98279.59;5088915;28;20036;-60
2021/06/24 11:03:16;;;;;;;3.33;0.35;;;;;;;26.98;35.70;98275.03;5092957;28;20040;-61
2021/06/24 11:05:46;;;;;;;0.10;0.10;;;;;;;26.93;35.85;98272.47;5092269;28;20028;-61
2021/06/24 11:08:20;;;;;;;0.30;0.30;;;;;;;26.97;35.81;98269.75;5092463;28;20105;-60
2021/06/24 11:11:01;;;;;;;;;;;;;;;27.00;35.60;98283.97;5096836;28;20073;-60
2021/06/24 11:13:39;;;;;;;0.10;0.10;;;;;;;26.96;35.83;98282.19;5096892;28;19922;-60
2021/06/24 11:16:10;;;;;;;0.20;0.20;;;;;;;26.89;35.92;98286.44;5096407;28;20115;-60
2021/06/24 11:18:36;;;;;;;0.08;0.08;;;;;;;26.71;35.85;98287.91;5096663;28;20107;-61
2021/06/24 11:21:07;;;;;;;0.32;0.32;;;;;;;26.53;36.12;98282.53;5096023;28;20048;-59
2021/06/24 11:23:35;;;;;;;1.83;0.60;;;;;;;26.46;36.27;98275.81;5077730;28;20558;-60
2021/06/24 11:26:05;;;;;;;0.10;0.10;;;;;;;26.39;36.50;98280.06;5078149;28;20040;-60
2021/06/24 11:28:40;;;;;;;0.32;0.32;;;;;;;26.45;36.25;98268.56;5077643;28;20032;-60
2021/06/24 11:31:07;;;;;;;0.13;0.13;;;;;;;26.52;36.21;98277.25;5095587;28;20024;-60
2021/06/24 11:33:36;;;;;;;0.40;0.20;;;;;;;26.65;35.72;98273.22;5095660;28;20127;-62
2021/06/24 11:36:11;;;;;;;0.10;0.10;;;;;;;26.75;35.92;98263.47;5096121;28;20027;-64
2021/06/24 11:38:48;;;;;;;0.10;0.10;;;;;;;26.78;35.67;98265.59;5095947;28;20031;-60